Time;durP1;ratioP1;P1;durP2;ratioP2;P2;SDS_P1;SDS_P2;PMS_P1;PMS_P2;Temp;Humidity;BMP_temperature;BMP_pressure;BME280_temperature;BME280_humidity;BME280_pressure;Samples;Min_cycle;Max_cycle;Signal;HPM_P1;HPM_P2
2021/01/25 00:00:10;;;;;;;47.78;30.05;;;;;;;;;;5033517;28;20257;-62
2021/01/25 00:02:37;;;;;;;49.92;29.50;;;;;;;;;;5033737;28;20225;-61
2021/01/25 00:05:05;;;;;;;49.33;30.55;;;;;;;;;;5034173;28;20260;-62
2021/01/25 00:07:32;;;;;;;45.88;28.40;;;;;;;;;;5033142;28;20308;-62
2021/01/25 00:10:00;;;;;;;45.90;28.05;;;;;;;;;;5033107;28;20763;-61
2021/01/25 00:12:26;;;;;;;49.72;31.63;;;;;;;;;;5033589;28;20280;-61
2021/01/25 00:14:53;;;;;;;45.38;27.13;;;;;;;;;;5033191;28;20257;-61
2021/01/25 00:17:20;;;;;;;49.00;28.00;;;;;;;;;;5033145;28;20206;-61
2021/01/25 00:19:47;;;;;;;52.10;29.88;;;;;;;;;;5033563;28;20622;-60
2021/01/25 00:22:15;;;;;;;53.13;30.02;;;;;;;;;;5035789;28;20214;-63
2021/01/25 00:24:42;;;;;;;47.60;28.70;;;;;;;;;;5040072;28;20285;-62
2021/01/25 00:27:09;;;;;;;47.47;28.23;;;;;;;;;;5037317;28;20293;-61
2021/01/25 00:29:36;;;;;;;45.30;28.23;;;;;;;;;;5037449;28;20238;-61
2021/01/25 00:32:06;;;;;;;45.22;29.30;;;;;;;;;;5037472;28;20558;-61
2021/01/25 00:34:32;;;;;;;42.92;28.90;;;;;;;;;;5038903;28;20567;-61
2021/01/25 00:36:59;;;;;;;45.65;29.65;;;;;;;;;;5044680;28;20262;-63
2021/01/25 00:39:27;;;;;;;44.58;30.27;;;;;;;;;;5041950;28;20281;-61
2021/01/25 00:41:54;;;;;;;52.63;27.80;;;;;;;;;;5037945;28;20285;-61
2021/01/25 00:44:21;;;;;;;47.17;26.27;;;;;;;;;;5037464;28;20206;-62
2021/01/25 00:46:48;;;;;;;44.78;27.90;;;;;;;;;;5037003;28;20212;-62
2021/01/25 00:49:15;;;;;;;46.20;27.50;;;;;;;;;;5040488;28;20284;-62
2021/01/25 00:51:43;;;;;;;44.22;26.30;;;;;;;;;;5036868;28;20342;-62
2021/01/25 00:54:10;;;;;;;47.72;28.30;;;;;;;;;;5037231;28;20632;-62
2021/01/25 00:56:38;;;;;;;48.97;27.65;;;;;;;;;;5036560;28;20206;-61
2021/01/25 00:59:05;;;;;;;45.20;27.92;;;;;;;;;;5036771;28;20203;-62
2021/01/25 01:01:32;;;;;;;43.67;26.67;;;;;;;;;;5036409;28;20226;-61
2021/01/25 01:03:59;;;;;;;45.95;27.80;;;;;;;;;;5036854;28;20217;-62
2021/01/25 01:06:26;;;;;;;44.92;28.95;;;;;;;;;;5036765;28;20202;-62
2021/01/25 01:08:52;;;;;;;44.42;27.77;;;;;;;;;;5037800;28;20767;-61
2021/01/25 01:11:19;;;;;;;47.10;27.75;;;;;;;;;;5038869;28;20282;-62
2021/01/25 01:13:47;;;;;;;38.45;25.25;;;;;;;;;;5039307;28;20203;-61
2021/01/25 01:16:14;;;;;;;41.92;27.00;;;;;;;;;;5036896;28;20740;-61
2021/01/25 01:18:41;;;;;;;45.67;29.23;;;;;;;;;;5037226;28;20198;-62
2021/01/25 01:21:08;;;;;;;45.75;28.67;;;;;;;;;;5037381;28;20733;-61
2021/01/25 01:23:35;;;;;;;43.90;25.80;;;;;;;;;;5038595;28;20289;-61
2021/01/25 01:26:02;;;;;;;44.10;28.05;;;;;;;;;;5040511;28;20202;-61
2021/01/25 01:28:29;;;;;;;46.10;27.45;;;;;;;;;;5040419;28;20336;-61
2021/01/25 01:30:56;;;;;;;44.70;27.95;;;;;;;;;;5038694;28;20272;-61
2021/01/25 01:33:23;;;;;;;50.28;28.40;;;;;;;;;;5039680;28;20206;-61
2021/01/25 01:35:50;;;;;;;45.13;27.13;;;;;;;;;;5036635;28;20253;-62
2021/01/25 01:38:17;;;;;;;43.30;27.35;;;;;;;;;;5037312;28;20562;-61
2021/01/25 01:40:43;;;;;;;42.88;27.42;;;;;;;;;;5036651;28;20230;-61
2021/01/25 01:43:10;;;;;;;43.38;26.83;;;;;;;;;;5036391;28;20206;-61
2021/01/25 01:45:37;;;;;;;45.33;28.73;;;;;;;;;;5035672;28;20199;-61
2021/01/25 01:48:05;;;;;;;43.40;27.92;;;;;;;;;;5035749;28;20251;-61
2021/01/25 01:50:32;;;;;;;46.92;29.35;;;;;;;;;;5036098;28;20226;-62
2021/01/25 01:52:59;;;;;;;47.28;29.63;;;;;;;;;;5035739;28;20268;-60
2021/01/25 01:55:26;;;;;;;48.47;30.02;;;;;;;;;;5036446;28;20621;-61
2021/01/25 01:57:53;;;;;;;48.50;29.95;;;;;;;;;;5035886;28;20675;-61
2021/01/25 02:00:21;;;;;;;46.38;28.55;;;;;;;;;;5036789;28;20265;-62
2021/01/25 02:02:48;;;;;;;46.20;28.63;;;;;;;;;;5035656;28;20206;-62
2021/01/25 02:05:16;;;;;;;49.00;30.55;;;;;;;;;;5035331;28;20209;-61
2021/01/25 02:07:45;;;;;;;43.28;26.80;;;;;;;;;;5035413;28;20234;-61
2021/01/25 02:10:13;;;;;;;42.90;27.55;;;;;;;;;;5035420;28;20234;-62
2021/01/25 02:12:40;;;;;;;44.55;27.25;;;;;;;;;;5035237;28;20206;-61
2021/01/25 02:15:08;;;;;;;43.50;26.83;;;;;;;;;;5035346;28;20225;-62
2021/01/25 02:17:35;;;;;;;48.05;29.33;;;;;;;;;;5035453;28;20229;-61
2021/01/25 02:20:05;;;;;;;46.25;27.60;;;;;;;;;;5034924;28;20260;-61
2021/01/25 02:22:49;;;;;;;41.17;27.48;;;;;;;;;;5034753;28;20271;-61
2021/01/25 02:25:18;;;;;;;41.10;26.08;;;;;;;;;;5035985;28;20189;-61
2021/01/25 02:27:46;;;;;;;41.55;27.90;;;;;;;;;;5034736;28;20659;-61
2021/01/25 02:30:15;;;;;;;42.20;27.42;;;;;;;;;;5035064;28;20225;-61
2021/01/25 02:32:42;;;;;;;46.47;26.70;;;;;;;;;;5034828;28;20221;-61
2021/01/25 02:35:10;;;;;;;41.40;26.05;;;;;;;;;;5035143;28;20258;-61
2021/01/25 02:37:37;;;;;;;37.08;25.50;;;;;;;;;;5034888;28;20671;-62
2021/01/25 02:40:05;;;;;;;39.65;23.20;;;;;;;;;;5034849;28;20218;-61
2021/01/25 02:42:32;;;;;;;41.88;25.20;;;;;;;;;;5034942;28;20213;-61
2021/01/25 02:45:01;;;;;;;41.65;26.27;;;;;;;;;;5034868;28;20202;-60
2021/01/25 02:47:28;;;;;;;42.97;24.88;;;;;;;;;;5033701;28;20233;-61
2021/01/25 02:49:55;;;;;;;30.25;22.27;;;;;;;;;;5034762;28;20203;-62
2021/01/25 02:52:21;;;;;;;34.20;24.17;;;;;;;;;;5034440;28;20675;-61
2021/01/25 02:54:48;;;;;;;39.33;23.92;;;;;;;;;;5038986;28;20206;-62
2021/01/25 02:57:15;;;;;;;33.38;23.13;;;;;;;;;;5035501;28;20205;-61
2021/01/25 02:59:42;;;;;;;34.22;22.17;;;;;;;;;;5034656;28;20214;-61
2021/01/25 03:02:11;;;;;;;33.80;22.73;;;;;;;;;;5034145;28;20647;-61
2021/01/25 03:04:38;;;;;;;35.10;22.50;;;;;;;;;;5034338;28;20209;-61
2021/01/25 03:07:05;;;;;;;34.85;21.17;;;;;;;;;;5034403;28;20198;-62
2021/01/25 03:09:33;;;;;;;36.33;23.55;;;;;;;;;;5034016;28;20730;-61
2021/01/25 03:12:01;;;;;;;33.60;21.55;;;;;;;;;;5034596;28;20218;-62
2021/01/25 03:14:28;;;;;;;31.17;21.20;;;;;;;;;;5034766;28;20206;-63
2021/01/25 03:16:55;;;;;;;31.15;21.98;;;;;;;;;;5035180;28;20210;-62
2021/01/25 03:19:23;;;;;;;34.33;21.58;;;;;;;;;;5035512;28;20206;-61
2021/01/25 03:21:50;;;;;;;32.13;21.80;;;;;;;;;;5035272;28;20253;-62
2021/01/25 03:24:17;;;;;;;30.40;19.25;;;;;;;;;;5035184;28;20259;-61
2021/01/25 03:26:44;;;;;;;34.95;22.17;;;;;;;;;;5034766;28;20202;-62
2021/01/25 03:29:11;;;;;;;35.88;21.10;;;;;;;;;;5034954;28;20222;-62
2021/01/25 03:31:38;;;;;;;33.97;21.60;;;;;;;;;;5034889;28;20229;-62
2021/01/25 03:34:04;;;;;;;35.55;22.25;;;;;;;;;;5034961;28;20207;-61
2021/01/25 03:36:32;;;;;;;37.65;21.10;;;;;;;;;;5034794;28;20209;-62
2021/01/25 03:38:59;;;;;;;31.45;20.75;;;;;;;;;;5034857;28;20198;-62
2021/01/25 03:41:26;;;;;;;40.10;23.88;;;;;;;;;;5040996;28;20218;-62
2021/01/25 03:43:53;;;;;;;36.65;21.90;;;;;;;;;;5037631;28;20576;-61
2021/01/25 03:46:20;;;;;;;37.38;23.25;;;;;;;;;;5036048;28;20612;-62
2021/01/25 03:48:47;;;;;;;34.53;23.20;;;;;;;;;;5036357;28;20283;-62
2021/01/25 03:51:14;;;;;;;34.03;20.30;;;;;;;;;;5035800;28;20701;-61
2021/01/25 03:53:42;;;;;;;38.05;22.92;;;;;;;;;;5035751;28;20207;-62
2021/01/25 03:56:09;;;;;;;36.67;21.63;;;;;;;;;;5034653;28;20260;-61
2021/01/25 03:58:36;;;;;;;32.60;20.88;;;;;;;;;;5034205;28;20198;-62
2021/01/25 04:01:03;;;;;;;33.53;21.35;;;;;;;;;;5035124;28;20222;-61
2021/01/25 04:03:29;;;;;;;35.25;22.73;;;;;;;;;;5034415;28;20264;-61
2021/01/25 04:07:40;;;;;;;36.22;23.08;;;;;;;;;;5114370;27;20609;-62
2021/01/25 04:10:08;;;;;;;35.80;22.70;;;;;;;;;;5112185;28;20230;-61
2021/01/25 04:12:35;;;;;;;46.85;25.48;;;;;;;;;;5111940;28;20204;-61
2021/01/25 04:15:02;;;;;;;39.65;23.80;;;;;;;;;;5111949;28;20203;-61
2021/01/25 04:17:29;;;;;;;36.13;24.60;;;;;;;;;;5111761;28;20568;-62
2021/01/25 04:19:56;;;;;;;36.95;23.88;;;;;;;;;;5113126;28;20199;-61
2021/01/25 04:22:22;;;;;;;41.90;24.73;;;;;;;;;;5111894;28;20199;-62
2021/01/25 04:24:50;;;;;;;35.78;23.25;;;;;;;;;;5112142;28;20203;-61
2021/01/25 04:27:17;;;;;;;40.95;24.58;;;;;;;;;;5111724;28;20216;-61
2021/01/25 04:29:44;;;;;;;35.38;23.02;;;;;;;;;;5111470;28;20208;-60
2021/01/25 04:32:11;;;;;;;45.75;25.38;;;;;;;;;;5112157;28;20200;-61
2021/01/25 04:34:37;;;;;;;39.50;24.92;;;;;;;;;;5111484;28;20203;-62
2021/01/25 04:37:05;;;;;;;37.55;23.45;;;;;;;;;;5112269;28;20195;-61
2021/01/25 04:39:31;;;;;;;40.25;24.50;;;;;;;;;;5113069;28;20210;-61
2021/01/25 04:41:59;;;;;;;40.15;22.67;;;;;;;;;;5112192;28;20215;-62
2021/01/25 04:44:27;;;;;;;46.45;25.58;;;;;;;;;;5112371;28;20663;-62
2021/01/25 04:46:54;;;;;;;43.30;25.45;;;;;;;;;;5111828;28;20228;-62
2021/01/25 04:49:21;;;;;;;35.83;23.95;;;;;;;;;;5111292;28;20204;-61
2021/01/25 04:51:48;;;;;;;42.25;23.33;;;;;;;;;;5111393;28;20280;-61
2021/01/25 04:54:15;;;;;;;42.67;25.52;;;;;;;;;;5110667;28;20210;-62
2021/01/25 04:56:42;;;;;;;42.90;25.17;;;;;;;;;;5111445;28;20192;-61
2021/01/25 04:59:10;;;;;;;37.17;23.48;;;;;;;;;;5111333;28;20207;-61
2021/01/25 05:01:36;;;;;;;44.40;27.38;;;;;;;;;;5111683;28;20223;-60
2021/01/25 05:04:03;;;;;;;41.28;25.27;;;;;;;;;;5113464;28;20288;-62
2021/01/25 05:06:30;;;;;;;42.17;23.48;;;;;;;;;;5111595;28;20224;-62
2021/01/25 05:08:57;;;;;;;43.92;24.23;;;;;;;;;;5112059;28;20204;-62
2021/01/25 05:11:24;;;;;;;37.10;23.05;;;;;;;;;;5111181;28;20590;-62
2021/01/25 05:13:51;;;;;;;44.75;25.02;;;;;;;;;;5110878;28;20216;-62
2021/01/25 05:16:20;;;;;;;37.63;24.42;;;;;;;;;;5111042;28;20192;-62
2021/01/25 05:18:47;;;;;;;38.78;22.52;;;;;;;;;;5098572;28;20204;-61
2021/01/25 05:21:14;;;;;;;44.70;25.55;;;;;;;;;;5097517;28;20224;-59
2021/01/25 05:23:42;;;;;;;42.65;23.38;;;;;;;;;;5105587;28;20204;-62
2021/01/25 05:26:09;;;;;;;38.45;24.52;;;;;;;;;;5105483;28;20259;-62
2021/01/25 05:28:40;;;;;;;37.50;22.25;;;;;;;;;;5104453;28;20288;-61
2021/01/25 05:31:18;;;;;;;30.33;20.23;;;;;;;;;;5103674;28;20220;-60
2021/01/25 05:33:45;;;;;;;38.15;20.77;;;;;;;;;;5103155;28;20230;-62
2021/01/25 05:36:12;;;;;;;34.50;21.25;;;;;;;;;;5102900;28;20246;-62
2021/01/25 05:38:39;;;;;;;34.25;20.98;;;;;;;;;;5102802;28;20207;-62
2021/01/25 05:41:06;;;;;;;37.25;21.13;;;;;;;;;;5102511;28;20599;-60
2021/01/25 05:43:33;;;;;;;35.53;21.42;;;;;;;;;;5103225;28;20204;-61
2021/01/25 05:46:07;;;;;;;36.72;21.38;;;;;;;;;;5106056;28;20232;-61
2021/01/25 05:48:35;;;;;;;37.80;22.45;;;;;;;;;;5107327;28;20207;-61
2021/01/25 05:51:11;;;;;;;33.22;20.17;;;;;;;;;;5109396;28;20647;-62
2021/01/25 05:53:38;;;;;;;35.70;20.60;;;;;;;;;;5110886;28;20204;-61
2021/01/25 05:56:07;;;;;;;38.13;21.75;;;;;;;;;;5113462;28;20204;-61
2021/01/25 05:58:34;;;;;;;37.53;23.38;;;;;;;;;;5113359;28;20204;-62
2021/01/25 06:01:01;;;;;;;36.63;20.75;;;;;;;;;;5112314;28;20224;-61
2021/01/25 06:03:29;;;;;;;36.28;20.67;;;;;;;;;;5110049;28;20208;-61
2021/01/25 06:05:56;;;;;;;35.75;21.50;;;;;;;;;;5105611;28;20224;-63
2021/01/25 06:08:25;;;;;;;38.03;21.02;;;;;;;;;;5105414;28;20189;-61
2021/01/25 06:10:59;;;;;;;34.95;21.33;;;;;;;;;;5101433;28;20264;-62
2021/01/25 06:13:31;;;;;;;38.00;20.58;;;;;;;;;;5096709;28;20659;-62
2021/01/25 06:15:58;;;;;;;36.47;21.30;;;;;;;;;;5096440;28;20550;-61
2021/01/25 06:18:26;;;;;;;36.67;22.23;;;;;;;;;;5096099;28;20211;-61
2021/01/25 06:20:54;;;;;;;34.35;20.88;;;;;;;;;;5096680;28;20232;-61
2021/01/25 06:23:22;;;;;;;38.70;21.55;;;;;;;;;;5096804;28;20204;-61
2021/01/25 06:25:49;;;;;;;35.70;20.85;;;;;;;;;;5098149;28;20224;-61
2021/01/25 06:28:16;;;;;;;34.25;20.05;;;;;;;;;;5099951;28;20291;-61
2021/01/25 06:30:43;;;;;;;37.78;22.42;;;;;;;;;;5095788;28;20636;-63
2021/01/25 06:33:14;;;;;;;30.40;19.95;;;;;;;;;;5096392;28;20203;-63
2021/01/25 06:35:40;;;;;;;35.42;20.30;;;;;;;;;;5097077;28;20215;-61
2021/01/25 06:38:13;;;;;;;35.83;19.23;;;;;;;;;;5096750;28;20196;-62
2021/01/25 06:40:43;;;;;;;31.63;18.88;;;;;;;;;;5096390;28;20719;-63
2021/01/25 06:43:10;;;;;;;32.67;20.25;;;;;;;;;;5095692;28;20209;-63
2021/01/25 06:45:39;;;;;;;33.33;20.10;;;;;;;;;;5096326;28;20200;-62
2021/01/25 06:48:07;;;;;;;35.08;20.02;;;;;;;;;;5101682;28;20200;-62
2021/01/25 06:50:36;;;;;;;37.35;20.90;;;;;;;;;;5103851;28;20300;-61
2021/01/25 06:53:04;;;;;;;36.33;19.85;;;;;;;;;;5099096;28;20205;-62
2021/01/25 06:55:32;;;;;;;36.15;19.10;;;;;;;;;;5100914;28;20211;-62
2021/01/25 06:58:04;;;;;;;32.00;19.70;;;;;;;;;;5103383;28;20215;-63
2021/01/25 07:00:32;;;;;;;35.85;20.85;;;;;;;;;;5104973;28;20220;-61
2021/01/25 07:03:00;;;;;;;31.98;19.10;;;;;;;;;;5105126;28;20205;-61
2021/01/25 07:05:27;;;;;;;36.22;20.48;;;;;;;;;;5100801;28;20204;-62
2021/01/25 07:08:09;;;;;;;37.50;20.60;;;;;;;;;;5100443;28;20196;-61
2021/01/25 07:10:36;;;;;;;31.38;18.15;;;;;;;;;;5095404;28;20224;-63
2021/01/25 07:13:04;;;;;;;38.17;21.05;;;;;;;;;;5097152;28;20636;-62
2021/01/25 07:15:33;;;;;;;29.42;17.42;;;;;;;;;;5098027;28;20200;-63
2021/01/25 07:18:01;;;;;;;32.55;19.95;;;;;;;;;;5095362;28;20196;-62
2021/01/25 07:20:28;;;;;;;31.35;19.05;;;;;;;;;;5095237;28;20227;-62
2021/01/25 07:22:55;;;;;;;33.85;18.55;;;;;;;;;;5094977;28;20204;-62
2021/01/25 07:25:22;;;;;;;33.13;18.48;;;;;;;;;;5094617;28;20204;-62
2021/01/25 07:27:48;;;;;;;31.23;18.70;;;;;;;;;;5094334;28;20209;-64
2021/01/25 07:30:18;;;;;;;32.10;18.70;;;;;;;;;;5094615;28;20247;-62
2021/01/25 07:32:48;;;;;;;38.92;20.33;;;;;;;;;;5094127;28;20204;-62
2021/01/25 07:35:15;;;;;;;32.05;19.35;;;;;;;;;;5094667;28;20566;-62
2021/01/25 07:37:41;;;;;;;31.92;19.63;;;;;;;;;;5094831;28;20196;-62
2021/01/25 07:40:10;;;;;;;31.25;19.90;;;;;;;;;;5094222;28;20741;-61
2021/01/25 07:42:37;;;;;;;31.42;19.63;;;;;;;;;;5094969;28;20203;-62
2021/01/25 07:45:05;;;;;;;32.40;19.73;;;;;;;;;;5094470;28;20205;-61
2021/01/25 07:47:32;;;;;;;31.00;18.75;;;;;;;;;;5095829;28;20250;-62
2021/01/25 07:50:07;;;;;;;26.65;17.17;;;;;;;;;;5095101;28;20216;-61
2021/01/25 07:52:34;;;;;;;28.80;16.27;;;;;;;;;;5095176;28;20181;-62
2021/01/25 07:55:10;;;;;;;31.50;17.35;;;;;;;;;;5098112;28;20228;-61
2021/01/25 07:57:37;;;;;;;29.88;18.45;;;;;;;;;;5099681;28;20544;-62
2021/01/25 08:00:13;;;;;;;28.60;16.20;;;;;;;;;;5102603;28;20220;-63
2021/01/25 08:02:41;;;;;;;26.65;15.65;;;;;;;;;;5110133;28;20181;-62
2021/01/25 08:05:11;;;;;;;27.75;16.90;;;;;;;;;;5111893;28;20204;-62
2021/01/25 08:07:38;;;;;;;26.38;16.20;;;;;;;;;;5112300;28;20285;-65
2021/01/25 08:10:05;;;;;;;28.88;17.90;;;;;;;;;;5112187;28;20224;-62
2021/01/25 08:12:32;;;;;;;28.88;17.05;;;;;;;;;;5108321;28;20201;-62
2021/01/25 08:15:04;;;;;;;30.08;19.80;;;;;;;;;;5102435;28;20200;-62
2021/01/25 08:17:33;;;;;;;28.70;17.67;;;;;;;;;;5102664;28;20267;-62
2021/01/25 08:20:03;;;;;;;28.58;17.30;;;;;;;;;;5102848;28;20227;-62
2021/01/25 08:22:34;;;;;;;29.83;18.92;;;;;;;;;;5102904;28;20207;-61
2021/01/25 08:25:02;;;;;;;33.08;18.63;;;;;;;;;;5103299;28;20198;-62
2021/01/25 08:27:30;;;;;;;30.80;19.40;;;;;;;;;;5102219;28;20220;-61
2021/01/25 08:30:00;;;;;;;32.75;21.30;;;;;;;;;;5099322;28;20440;-60
2021/01/25 08:32:31;;;;;;;32.22;19.33;;;;;;;;;;5102028;28;20204;-61
2021/01/25 08:34:59;;;;;;;25.88;18.10;;;;;;;;;;5104074;28;20195;-62
2021/01/25 08:37:27;;;;;;;29.15;19.55;;;;;;;;;;5106504;28;20205;-62
2021/01/25 08:39:54;;;;;;;30.23;19.20;;;;;;;;;;5106431;28;20200;-60
2021/01/25 08:42:24;;;;;;;38.42;20.63;;;;;;;;;;5105711;28;20214;-62
2021/01/25 08:44:53;;;;;;;35.22;20.02;;;;;;;;;;5096468;28;20584;-61
2021/01/25 08:47:23;;;;;;;35.63;20.95;;;;;;;;;;5095544;28;20274;-60
2021/01/25 08:49:51;;;;;;;28.10;18.27;;;;;;;;;;5094543;28;20184;-61
2021/01/25 08:52:27;;;;;;;29.58;18.35;;;;;;;;;;5094846;28;20668;-61
2021/01/25 08:55:05;;;;;;;29.05;19.23;;;;;;;;;;5101226;28;20207;-61
2021/01/25 08:57:34;;;;;;;28.90;16.85;;;;;;;;;;5104252;28;20180;-62
2021/01/25 09:00:09;;;;;;;24.75;16.00;;;;;;;;;;5101617;28;20311;-62
2021/01/25 09:02:36;;;;;;;25.75;17.52;;;;;;;;;;5103844;28;20191;-62
2021/01/25 09:05:03;;;;;;;27.38;17.52;;;;;;;;;;5104003;28;20200;-62
2021/01/25 09:07:30;;;;;;;23.05;15.05;;;;;;;;;;5105441;28;20647;-61
2021/01/25 09:09:57;;;;;;;22.65;15.85;;;;;;;;;;5104079;28;20254;-62
2021/01/25 09:12:24;;;;;;;24.70;14.98;;;;;;;;;;5104968;28;20204;-62
2021/01/25 09:14:51;;;;;;;22.73;14.95;;;;;;;;;;5106397;28;20208;-62
2021/01/25 09:17:18;;;;;;;27.48;16.50;;;;;;;;;;5101888;28;20211;-62
2021/01/25 09:19:45;;;;;;;27.75;18.00;;;;;;;;;;5099997;28;20204;-61
2021/01/25 09:22:13;;;;;;;28.30;16.25;;;;;;;;;;5101393;28;20204;-62
2021/01/25 09:24:41;;;;;;;23.50;15.23;;;;;;;;;;5100504;28;20219;-63
2021/01/25 09:27:07;;;;;;;25.63;16.35;;;;;;;;;;5100214;28;20216;-62
2021/01/25 09:29:34;;;;;;;22.48;13.95;;;;;;;;;;5098748;28;20205;-62
2021/01/25 09:32:01;;;;;;;23.23;14.45;;;;;;;;;;5100125;28;20315;-62
2021/01/25 09:34:28;;;;;;;23.67;13.93;;;;;;;;;;5098696;28;20671;-62
2021/01/25 09:36:55;;;;;;;20.00;14.77;;;;;;;;;;5098082;28;20204;-62
2021/01/25 09:39:23;;;;;;;27.42;15.00;;;;;;;;;;5097985;28;20200;-62
2021/01/25 09:41:50;;;;;;;25.33;15.38;;;;;;;;;;5097411;28;20224;-61
2021/01/25 09:44:18;;;;;;;21.92;14.85;;;;;;;;;;5097392;28;20204;-61
2021/01/25 09:46:45;;;;;;;20.92;13.75;;;;;;;;;;5097911;28;20236;-60
2021/01/25 09:49:12;;;;;;;18.90;12.60;;;;;;;;;;5097515;28;20246;-63
2021/01/25 09:51:39;;;;;;;16.90;12.93;;;;;;;;;;5097716;28;20228;-61
2021/01/25 09:54:06;;;;;;;18.17;12.88;;;;;;;;;;5102952;28;20206;-62
2021/01/25 09:56:34;;;;;;;18.88;12.65;;;;;;;;;;5111773;28;20192;-61
2021/01/25 09:59:01;;;;;;;16.70;12.55;;;;;;;;;;5108101;28;20297;-61
2021/01/25 10:01:27;;;;;;;14.98;11.70;;;;;;;;;;5100699;28;20220;-61
2021/01/25 10:03:54;;;;;;;14.93;10.32;;;;;;;;;;5100937;28;20211;-62
2021/01/25 10:06:21;;;;;;;13.40;9.80;;;;;;;;;;5104515;28;20288;-61
2021/01/25 10:08:48;;;;;;;18.35;10.43;;;;;;;;;;5102164;28;20560;-60
2021/01/25 10:11:15;;;;;;;17.08;9.43;;;;;;;;;;5097417;28;20216;-61
2021/01/25 10:13:43;;;;;;;10.27;7.32;;;;;;;;;;5096774;28;20200;-61
2021/01/25 10:16:10;;;;;;;9.73;6.60;;;;;;;;;;5097350;28;20204;-61
2021/01/25 10:18:39;;;;;;;10.20;7.40;;;;;;;;;;5096872;28;20253;-61
2021/01/25 10:21:06;;;;;;;9.05;6.97;;;;;;;;;;5097174;28;20220;-60
2021/01/25 10:23:33;;;;;;;10.65;7.07;;;;;;;;;;5097799;28;20699;-62
2021/01/25 10:26:00;;;;;;;9.02;6.47;;;;;;;;;;5097730;28;20561;-60
2021/01/25 10:28:27;;;;;;;11.25;6.97;;;;;;;;;;5098073;28;20204;-60
2021/01/25 10:30:55;;;;;;;10.25;7.28;;;;;;;;;;5097766;28;20220;-63
2021/01/25 10:33:22;;;;;;;7.70;6.40;;;;;;;;;;5100565;28;20201;-62
2021/01/25 10:35:48;;;;;;;9.55;6.85;;;;;;;;;;5098094;28;20625;-61
2021/01/25 10:38:15;;;;;;;9.02;6.65;;;;;;;;;;5097960;28;20201;-61
2021/01/25 10:40:42;;;;;;;9.57;7.05;;;;;;;;;;5100211;28;20720;-61
2021/01/25 10:43:09;;;;;;;11.88;7.40;;;;;;;;;;5101757;28;20200;-60
2021/01/25 10:45:36;;;;;;;10.82;6.80;;;;;;;;;;5102616;28;20579;-63
2021/01/25 10:48:04;;;;;;;7.82;6.55;;;;;;;;;;5105401;28;20251;-64
2021/01/25 10:50:31;;;;;;;8.15;6.30;;;;;;;;;;5104743;28;20261;-62
2021/01/25 10:52:58;;;;;;;9.00;5.95;;;;;;;;;;5106222;28;20230;-62
2021/01/25 10:55:25;;;;;;;9.23;5.38;;;;;;;;;;5109689;28;20211;-62
2021/01/25 10:57:52;;;;;;;13.82;6.05;;;;;;;;;;5111019;28;20200;-62
2021/01/25 11:00:20;;;;;;;8.32;6.10;;;;;;;;;;5108702;28;20231;-62
2021/01/25 11:02:48;;;;;;;11.93;6.97;;;;;;;;;;5108780;28;20666;-62
2021/01/25 11:05:16;;;;;;;9.07;6.47;;;;;;;;;;5104643;28;20261;-62
2021/01/25 11:07:44;;;;;;;9.98;6.55;;;;;;;;;;5102030;28;20212;-62
2021/01/25 11:10:12;;;;;;;12.27;7.35;;;;;;;;;;5096047;22;20234;-54
2021/01/25 11:12:39;;;;;;;9.07;6.15;;;;;;;;;;5033276;28;20684;-54
2021/01/25 11:15:06;;;;;;;9.65;7.20;;;;;;;;;;5032886;28;20203;-54
2021/01/25 11:17:33;;;;;;;9.73;6.53;;;;;;;;;;5033208;28;20267;-55
2021/01/25 11:20:00;;;;;;;9.43;6.88;;;;;;;;;;5032758;28;20246;-54
2021/01/25 11:22:28;;;;;;;9.23;6.97;;;;;;;;;;5033937;28;20559;-57
2021/01/25 11:24:55;;;;;;;10.75;7.72;;;;;;;;;;5033465;28;20213;-55
2021/01/25 11:27:22;;;;;;;10.90;7.40;;;;;;;;;;5033605;28;20230;-56
2021/01/25 11:29:48;;;;;;;11.98;8.70;;;;;;;;;;5033148;28;20291;-51
2021/01/25 11:32:15;;;;;;;12.00;7.53;;;;;;;;;;5033112;28;20229;-55
2021/01/25 11:34:42;;;;;;;10.40;8.52;;;;;;;;;;5032429;28;20206;-54
2021/01/25 11:37:09;;;;;;;10.02;8.40;;;;;;;;;;5032150;28;20198;-55
2021/01/25 11:39:37;;;;;;;16.20;9.80;;;;;;;;;;5032255;28;20654;-54
2021/01/25 11:42:04;;;;;;;13.15;9.18;;;;;;;;;;5032708;28;20206;-54
2021/01/25 11:44:31;;;;;;;11.73;9.57;;;;;;;;;;5032429;28;20203;-55
2021/01/25 11:46:57;;;;;;;11.77;8.68;;;;;;;;;;5032579;28;20227;-55
2021/01/25 11:49:24;;;;;;;18.10;9.38;;;;;;;;;;5032826;28;20237;-55
2021/01/25 11:51:51;;;;;;;11.15;8.32;;;;;;;;;;5032948;28;20206;-55
2021/01/25 11:54:18;;;;;;;12.45;9.07;;;;;;;;;;5032449;28;20674;-55
2021/01/25 11:56:46;;;;;;;16.45;10.80;;;;;;;;;;5033150;28;20202;-56
2021/01/25 11:59:13;;;;;;;14.77;9.75;;;;;;;;;;5033016;28;20219;-55
2021/01/25 12:01:40;;;;;;;13.05;10.55;;;;;;;;;;5033274;28;20246;-56
2021/01/25 12:04:07;;;;;;;14.98;9.40;;;;;;;;;;5032909;28;20205;-55
2021/01/25 12:06:34;;;;;;;15.02;9.07;;;;;;;;;;5032619;28;20725;-55
2021/01/25 12:09:01;;;;;;;15.07;10.15;;;;;;;;;;5032845;28;20678;-54
2021/01/25 12:11:28;;;;;;;12.30;8.73;;;;;;;;;;5032552;28;20270;-55
2021/01/25 12:13:55;;;;;;;14.05;8.90;;;;;;;;;;5033018;28;20198;-56
2021/01/25 12:16:22;;;;;;;13.80;8.50;;;;;;;;;;5033617;28;20202;-56
2021/01/25 12:18:49;;;;;;;14.93;8.60;;;;;;;;;;5033620;28;20206;-56
2021/01/25 12:21:16;;;;;;;12.43;7.93;;;;;;;;;;5033471;28;20261;-55
2021/01/25 12:23:43;;;;;;;13.95;8.52;;;;;;;;;;5033358;28;20217;-56
2021/01/25 12:26:10;;;;;;;15.65;8.75;;;;;;;;;;5033411;28;20206;-55
2021/01/25 12:28:36;;;;;;;13.45;8.80;;;;;;;;;;5035974;28;20209;-56
2021/01/25 12:31:06;;;;;;;12.18;8.38;;;;;;;;;;5037276;28;20709;-55
2021/01/25 12:33:32;;;;;;;13.90;9.65;;;;;;;;;;5037170;28;20228;-55
2021/01/25 12:35:59;;;;;;;11.68;8.70;;;;;;;;;;5037058;28;20229;-55
2021/01/25 12:38:26;;;;;;;13.63;8.80;;;;;;;;;;5036977;28;20202;-56
2021/01/25 12:40:53;;;;;;;11.90;8.32;;;;;;;;;;5036366;28;20226;-54
2021/01/25 12:43:20;;;;;;;13.25;8.73;;;;;;;;;;5035948;28;20597;-54
2021/01/25 12:45:47;;;;;;;17.13;10.30;;;;;;;;;;5036055;28;20198;-54
2021/01/25 12:48:15;;;;;;;12.23;8.85;;;;;;;;;;5035788;28;20230;-55
2021/01/25 12:50:44;;;;;;;10.05;7.72;;;;;;;;;;5036660;28;20249;-56
2021/01/25 12:53:11;;;;;;;12.60;7.82;;;;;;;;;;5035868;28;20206;-55
2021/01/25 12:55:38;;;;;;;10.57;8.35;;;;;;;;;;5035646;28;20203;-55
2021/01/25 12:58:04;;;;;;;12.13;7.70;;;;;;;;;;5036296;28;20213;-54
2021/01/25 13:00:33;;;;;;;9.23;7.85;;;;;;;;;;5035897;28;20226;-56
2021/01/25 13:03:00;;;;;;;12.00;7.70;;;;;;;;;;5035499;28;20615;-55
2021/01/25 13:05:27;;;;;;;10.68;6.78;;;;;;;;;;5035530;28;20198;-55
2021/01/25 13:07:54;;;;;;;9.68;7.70;;;;;;;;;;5035756;28;20632;-56
2021/01/25 13:10:21;;;;;;;11.05;7.90;;;;;;;;;;5035366;28;20230;-55
2021/01/25 13:12:48;;;;;;;9.52;7.55;;;;;;;;;;5035452;28;20202;-56
2021/01/25 13:15:16;;;;;;;13.07;8.60;;;;;;;;;;5035578;28;20206;-54
2021/01/25 13:17:43;;;;;;;10.00;7.20;;;;;;;;;;5035226;28;20205;-55
2021/01/25 13:20:11;;;;;;;14.75;9.57;;;;;;;;;;5034803;28;20226;-54
2021/01/25 13:22:38;;;;;;;14.35;8.93;;;;;;;;;;5035050;28;20256;-55
2021/01/25 13:25:06;;;;;;;13.65;8.25;;;;;;;;;;5035627;28;20203;-55
2021/01/25 13:27:33;;;;;;;13.35;8.45;;;;;;;;;;5035188;28;20218;-55
2021/01/25 13:30:00;;;;;;;19.73;9.18;;;;;;;;;;5035917;28;20288;-57
2021/01/25 13:32:27;;;;;;;13.98;9.38;;;;;;;;;;5036860;28;20622;-56
2021/01/25 13:34:53;;;;;;;13.07;8.35;;;;;;;;;;5036632;28;20678;-56
2021/01/25 13:37:20;;;;;;;9.73;6.57;;;;;;;;;;5036014;28;20742;-57
2021/01/25 13:39:48;;;;;;;9.93;7.65;;;;;;;;;;5036133;28;20264;-57
2021/01/25 13:42:15;;;;;;;10.73;7.72;;;;;;;;;;5035706;28;20206;-57
2021/01/25 13:44:42;;;;;;;11.75;6.40;;;;;;;;;;5035673;28;20232;-55
2021/01/25 13:47:09;;;;;;;9.10;6.40;;;;;;;;;;5035602;28;20218;-54
2021/01/25 13:49:35;;;;;;;11.85;6.40;;;;;;;;;;5035620;28;20226;-55
2021/01/25 13:52:02;;;;;;;8.23;6.95;;;;;;;;;;5035184;28;20209;-55
2021/01/25 13:54:29;;;;;;;10.57;7.20;;;;;;;;;;5034797;28;20206;-57
2021/01/25 13:56:57;;;;;;;12.27;7.30;;;;;;;;;;5034796;28;20198;-56
2021/01/25 13:59:23;;;;;;;11.80;7.40;;;;;;;;;;5034755;28;20219;-55
2021/01/25 14:01:50;;;;;;;10.60;8.07;;;;;;;;;;5034905;28;20245;-56
2021/01/25 14:04:17;;;;;;;12.68;7.38;;;;;;;;;;5034671;28;20202;-55
2021/01/25 14:06:44;;;;;;;12.15;8.02;;;;;;;;;;5034510;28;20297;-56
2021/01/25 14:09:11;;;;;;;11.23;7.65;;;;;;;;;;5035459;28;20222;-58
2021/01/25 14:11:37;;;;;;;11.90;8.20;;;;;;;;;;5036075;28;20198;-56
2021/01/25 14:14:05;;;;;;;9.45;7.10;;;;;;;;;;5035875;28;20249;-56
2021/01/25 14:16:32;;;;;;;12.35;8.38;;;;;;;;;;5035335;28;20213;-57
2021/01/25 14:18:59;;;;;;;13.65;7.60;;;;;;;;;;5036326;28;20252;-56
2021/01/25 14:21:26;;;;;;;13.13;9.27;;;;;;;;;;5035641;28;20213;-55
2021/01/25 14:23:53;;;;;;;12.75;8.73;;;;;;;;;;5035986;28;20198;-54